sensor_id;sensor_type;location;lat;lon;timestamp;P1;durP1;ratioP1;P2;durP2;ratioP2
22677;SDS011;26259;50.214;18.620;2022-12-11T00:01:23;60.57;;;32.43;;
22677;SDS011;26259;50.214;18.620;2022-12-11T00:03:49;54.77;;;29.17;;
22677;SDS011;26259;50.214;18.620;2022-12-11T00:06:16;63.30;;;31.53;;
22677;SDS011;26259;50.214;18.620;2022-12-11T00:08:44;57.37;;;30.23;;
22677;SDS011;26259;50.214;18.620;2022-12-11T00:11:10;62.20;;;31.47;;
22677;SDS011;26259;50.214;18.620;2022-12-11T00:13:38;59.00;;;29.10;;
22677;SDS011;26259;50.214;18.620;2022-12-11T00:16:03;61.03;;;30.17;;
22677;SDS011;26259;50.214;18.620;2022-12-11T00:18:29;68.67;;;31.00;;
22677;SDS011;26259;50.214;18.620;2022-12-11T00:20:58;68.70;;;29.80;;
22677;SDS011;26259;50.214;18.620;2022-12-11T00:23:25;64.90;;;31.73;;
22677;SDS011;26259;50.214;18.620;2022-12-11T00:25:51;65.47;;;28.97;;
22677;SDS011;26259;50.214;18.620;2022-12-11T00:28:16;65.70;;;28.20;;
22677;SDS011;26259;50.214;18.620;2022-12-11T00:30:45;69.30;;;31.37;;
22677;SDS011;26259;50.214;18.620;2022-12-11T00:33:12;63.57;;;30.27;;
22677;SDS011;26259;50.214;18.620;2022-12-11T00:35:43;65.57;;;27.23;;
22677;SDS011;26259;50.214;18.620;2022-12-11T00:38:14;67.13;;;30.13;;
22677;SDS011;26259;50.214;18.620;2022-12-11T00:40:41;61.73;;;29.13;;
22677;SDS011;26259;50.214;18.620;2022-12-11T00:43:07;71.90;;;30.80;;
22677;SDS011;26259;50.214;18.620;2022-12-11T00:45:42;69.80;;;30.47;;
22677;SDS011;26259;50.214;18.620;2022-12-11T00:48:10;66.97;;;28.23;;
22677;SDS011;26259;50.214;18.620;2022-12-11T00:50:36;74.53;;;30.97;;
22677;SDS011;26259;50.214;18.620;2022-12-11T00:53:03;70.40;;;29.83;;
22677;SDS011;26259;50.214;18.620;2022-12-11T00:55:29;73.47;;;30.00;;
22677;SDS011;26259;50.214;18.620;2022-12-11T00:57:55;67.83;;;29.90;;
22677;SDS011;26259;50.214;18.620;2022-12-11T01:00:22;72.97;;;29.50;;
22677;SDS011;26259;50.214;18.620;2022-12-11T01:02:48;69.77;;;29.10;;
22677;SDS011;26259;50.214;18.620;2022-12-11T01:05:15;72.07;;;30.10;;
22677;SDS011;26259;50.214;18.620;2022-12-11T01:07:40;66.10;;;29.50;;
22677;SDS011;26259;50.214;18.620;2022-12-11T01:10:06;71.63;;;28.57;;
22677;SDS011;26259;50.214;18.620;2022-12-11T01:15:16;65.03;;;26.97;;
22677;SDS011;26259;50.214;18.620;2022-12-11T01:17:43;71.43;;;29.83;;
22677;SDS011;26259;50.214;18.620;2022-12-11T01:20:08;64.47;;;27.67;;
22677;SDS011;26259;50.214;18.620;2022-12-11T01:22:34;66.80;;;27.90;;
22677;SDS011;26259;50.214;18.620;2022-12-11T01:25:00;70.40;;;29.47;;
22677;SDS011;26259;50.214;18.620;2022-12-11T01:27:26;66.20;;;27.77;;
22677;SDS011;26259;50.214;18.620;2022-12-11T01:29:51;68.80;;;28.47;;
22677;SDS011;26259;50.214;18.620;2022-12-11T01:32:17;65.57;;;28.23;;
22677;SDS011;26259;50.214;18.620;2022-12-11T01:34:43;70.43;;;28.47;;
22677;SDS011;26259;50.214;18.620;2022-12-11T01:37:08;67.13;;;28.27;;
22677;SDS011;26259;50.214;18.620;2022-12-11T01:39:34;59.90;;;27.80;;
22677;SDS011;26259;50.214;18.620;2022-12-11T01:42:02;66.77;;;28.50;;
22677;SDS011;26259;50.214;18.620;2022-12-11T01:46:53;64.67;;;27.57;;
22677;SDS011;26259;50.214;18.620;2022-12-11T01:49:20;72.63;;;31.13;;
22677;SDS011;26259;50.214;18.620;2022-12-11T01:51:58;60.83;;;28.73;;
22677;SDS011;26259;50.214;18.620;2022-12-11T01:54:31;58.03;;;27.47;;
22677;SDS011;26259;50.214;18.620;2022-12-11T01:57:01;57.70;;;26.73;;
22677;SDS011;26259;50.214;18.620;2022-12-11T01:59:30;54.03;;;24.93;;
22677;SDS011;26259;50.214;18.620;2022-12-11T02:02:09;57.67;;;26.43;;
22677;SDS011;26259;50.214;18.620;2022-12-11T02:04:41;59.03;;;26.13;;
22677;SDS011;26259;50.214;18.620;2022-12-11T02:07:08;53.87;;;25.93;;
22677;SDS011;26259;50.214;18.620;2022-12-11T02:09:34;51.90;;;25.47;;
22677;SDS011;26259;50.214;18.620;2022-12-11T02:14:38;58.50;;;27.07;;
22677;SDS011;26259;50.214;18.620;2022-12-11T02:17:32;65.60;;;26.30;;
22677;SDS011;26259;50.214;18.620;2022-12-11T02:20:15;78.47;;;28.77;;
22677;SDS011;26259;50.214;18.620;2022-12-11T02:30:38;66.17;;;26.20;;
22677;SDS011;26259;50.214;18.620;2022-12-11T02:33:06;70.17;;;27.87;;
22677;SDS011;26259;50.214;18.620;2022-12-11T02:35:38;64.73;;;25.73;;
22677;SDS011;26259;50.214;18.620;2022-12-11T02:40:38;73.80;;;28.83;;
22677;SDS011;26259;50.214;18.620;2022-12-11T02:43:07;59.87;;;27.23;;
22677;SDS011;26259;50.214;18.620;2022-12-11T02:45:35;73.20;;;28.67;;
22677;SDS011;26259;50.214;18.620;2022-12-11T02:48:04;75.17;;;29.50;;
22677;SDS011;26259;50.214;18.620;2022-12-11T02:50:32;79.97;;;28.73;;
22677;SDS011;26259;50.214;18.620;2022-12-11T02:53:00;82.70;;;28.87;;
22677;SDS011;26259;50.214;18.620;2022-12-11T02:55:28;73.70;;;30.07;;
22677;SDS011;26259;50.214;18.620;2022-12-11T02:58:40;77.73;;;32.87;;
22677;SDS011;26259;50.214;18.620;2022-12-11T03:00:50;80.00;;;29.90;;
22677;SDS011;26259;50.214;18.620;2022-12-11T03:03:15;77.03;;;28.17;;
22677;SDS011;26259;50.214;18.620;2022-12-11T03:05:41;76.67;;;28.93;;
22677;SDS011;26259;50.214;18.620;2022-12-11T03:08:07;85.60;;;30.40;;
22677;SDS011;26259;50.214;18.620;2022-12-11T03:10:33;93.73;;;33.90;;
22677;SDS011;26259;50.214;18.620;2022-12-11T03:12:59;83.07;;;32.43;;
22677;SDS011;26259;50.214;18.620;2022-12-11T03:15:28;83.90;;;32.90;;
22677;SDS011;26259;50.214;18.620;2022-12-11T03:18:20;86.30;;;34.73;;
22677;SDS011;26259;50.214;18.620;2022-12-11T03:23:43;92.53;;;37.33;;
22677;SDS011;26259;50.214;18.620;2022-12-11T03:26:35;97.40;;;35.27;;
22677;SDS011;26259;50.214;18.620;2022-12-11T03:29:09;109.00;;;38.07;;
22677;SDS011;26259;50.214;18.620;2022-12-11T03:31:44;113.00;;;44.37;;
22677;SDS011;26259;50.214;18.620;2022-12-11T03:34:25;135.00;;;43.80;;
22677;SDS011;26259;50.214;18.620;2022-12-11T03:36:57;94.00;;;37.00;;
22677;SDS011;26259;50.214;18.620;2022-12-11T03:39:26;99.50;;;36.33;;
22677;SDS011;26259;50.214;18.620;2022-12-11T03:41:56;124.20;;;44.03;;
22677;SDS011;26259;50.214;18.620;2022-12-11T03:44:25;85.77;;;35.07;;
22677;SDS011;26259;50.214;18.620;2022-12-11T03:46:52;88.87;;;35.77;;
22677;SDS011;26259;50.214;18.620;2022-12-11T03:49:20;85.33;;;34.20;;
22677;SDS011;26259;50.214;18.620;2022-12-11T03:51:52;93.27;;;34.37;;
22677;SDS011;26259;50.214;18.620;2022-12-11T03:54:20;97.43;;;37.63;;
22677;SDS011;26259;50.214;18.620;2022-12-11T03:56:47;91.37;;;35.40;;
22677;SDS011;26259;50.214;18.620;2022-12-11T03:59:17;81.73;;;33.63;;
22677;SDS011;26259;50.214;18.620;2022-12-11T04:01:43;89.57;;;37.33;;
22677;SDS011;26259;50.214;18.620;2022-12-11T04:04:08;78.20;;;31.77;;
22677;SDS011;26259;50.214;18.620;2022-12-11T04:06:34;97.00;;;38.80;;
22677;SDS011;26259;50.214;18.620;2022-12-11T04:09:00;99.67;;;44.57;;
22677;SDS011;26259;50.214;18.620;2022-12-11T04:11:25;95.13;;;39.27;;
22677;SDS011;26259;50.214;18.620;2022-12-11T04:14:07;81.00;;;34.67;;
22677;SDS011;26259;50.214;18.620;2022-12-11T04:16:54;83.60;;;34.40;;
22677;SDS011;26259;50.214;18.620;2022-12-11T04:19:20;95.20;;;37.93;;
22677;SDS011;26259;50.214;18.620;2022-12-11T04:22:05;70.50;;;31.83;;
22677;SDS011;26259;50.214;18.620;2022-12-11T04:25:03;84.90;;;34.90;;
22677;SDS011;26259;50.214;18.620;2022-12-11T04:27:30;82.27;;;32.77;;
22677;SDS011;26259;50.214;18.620;2022-12-11T04:30:16;76.87;;;31.40;;
22677;SDS011;26259;50.214;18.620;2022-12-11T04:32:47;80.07;;;33.67;;
22677;SDS011;26259;50.214;18.620;2022-12-11T04:35:13;77.33;;;34.63;;
22677;SDS011;26259;50.214;18.620;2022-12-11T04:37:39;72.33;;;32.00;;
22677;SDS011;26259;50.214;18.620;2022-12-11T04:40:06;76.80;;;33.70;;
22677;SDS011;26259;50.214;18.620;2022-12-11T04:42:33;69.90;;;30.70;;
22677;SDS011;26259;50.214;18.620;2022-12-11T04:44:59;64.30;;;29.00;;
22677;SDS011;26259;50.214;18.620;2022-12-11T04:47:25;61.50;;;29.20;;
22677;SDS011;26259;50.214;18.620;2022-12-11T04:49:51;73.10;;;31.03;;
22677;SDS011;26259;50.214;18.620;2022-12-11T04:52:17;86.53;;;36.67;;
22677;SDS011;26259;50.214;18.620;2022-12-11T04:54:42;93.93;;;42.77;;
22677;SDS011;26259;50.214;18.620;2022-12-11T04:57:08;87.60;;;36.50;;
22677;SDS011;26259;50.214;18.620;2022-12-11T04:59:34;89.50;;;33.63;;
22677;SDS011;26259;50.214;18.620;2022-12-11T05:01:59;91.93;;;37.57;;
22677;SDS011;26259;50.214;18.620;2022-12-11T05:04:29;85.53;;;35.03;;
22677;SDS011;26259;50.214;18.620;2022-12-11T05:06:56;84.73;;;33.87;;
22677;SDS011;26259;50.214;18.620;2022-12-11T05:09:21;89.03;;;35.57;;
22677;SDS011;26259;50.214;18.620;2022-12-11T05:11:47;86.97;;;35.83;;
22677;SDS011;26259;50.214;18.620;2022-12-11T05:14:13;93.10;;;37.83;;
22677;SDS011;26259;50.214;18.620;2022-12-11T05:16:38;92.83;;;36.83;;
22677;SDS011;26259;50.214;18.620;2022-12-11T05:19:04;87.13;;;35.07;;
22677;SDS011;26259;50.214;18.620;2022-12-11T05:21:29;78.77;;;33.37;;
22677;SDS011;26259;50.214;18.620;2022-12-11T05:23:55;76.50;;;32.93;;
22677;SDS011;26259;50.214;18.620;2022-12-11T05:26:20;69.70;;;31.97;;
22677;SDS011;26259;50.214;18.620;2022-12-11T05:28:49;70.27;;;30.40;;
22677;SDS011;26259;50.214;18.620;2022-12-11T05:31:18;75.77;;;31.73;;
22677;SDS011;26259;50.214;18.620;2022-12-11T05:33:48;69.57;;;30.37;;
22677;SDS011;26259;50.214;18.620;2022-12-11T05:36:18;80.27;;;30.87;;
22677;SDS011;26259;50.214;18.620;2022-12-11T05:38:56;74.47;;;30.93;;
22677;SDS011;26259;50.214;18.620;2022-12-11T05:41:23;72.13;;;30.07;;
22677;SDS011;26259;50.214;18.620;2022-12-11T05:43:51;68.93;;;29.57;;
22677;SDS011;26259;50.214;18.620;2022-12-11T05:46:21;77.83;;;31.17;;
22677;SDS011;26259;50.214;18.620;2022-12-11T05:48:50;70.27;;;30.97;;
22677;SDS011;26259;50.214;18.620;2022-12-11T05:51:18;77.70;;;33.43;;
22677;SDS011;26259;50.214;18.620;2022-12-11T05:53:45;76.20;;;32.40;;
22677;SDS011;26259;50.214;18.620;2022-12-11T05:56:17;78.10;;;32.80;;
22677;SDS011;26259;50.214;18.620;2022-12-11T05:58:44;67.07;;;30.40;;
22677;SDS011;26259;50.214;18.620;2022-12-11T06:01:16;69.90;;;29.87;;
22677;SDS011;26259;50.214;18.620;2022-12-11T06:03:45;65.73;;;28.07;;
22677;SDS011;26259;50.214;18.620;2022-12-11T06:06:11;75.13;;;34.43;;
22677;SDS011;26259;50.214;18.620;2022-12-11T06:08:36;69.40;;;31.33;;
22677;SDS011;26259;50.214;18.620;2022-12-11T06:11:02;72.10;;;32.30;;
22677;SDS011;26259;50.214;18.620;2022-12-11T06:13:28;79.47;;;36.60;;
22677;SDS011;26259;50.214;18.620;2022-12-11T06:15:54;79.90;;;33.43;;
22677;SDS011;26259;50.214;18.620;2022-12-11T06:18:19;76.10;;;34.07;;
22677;SDS011;26259;50.214;18.620;2022-12-11T06:20:45;68.27;;;32.10;;
22677;SDS011;26259;50.214;18.620;2022-12-11T06:23:11;68.87;;;29.80;;
22677;SDS011;26259;50.214;18.620;2022-12-11T06:25:37;64.20;;;29.40;;
22677;SDS011;26259;50.214;18.620;2022-12-11T06:28:03;61.83;;;29.17;;
22677;SDS011;26259;50.214;18.620;2022-12-11T06:30:29;62.93;;;28.77;;
22677;SDS011;26259;50.214;18.620;2022-12-11T06:32:56;60.80;;;29.03;;
22677;SDS011;26259;50.214;18.620;2022-12-11T06:35:22;65.03;;;28.80;;
22677;SDS011;26259;50.214;18.620;2022-12-11T06:37:48;64.83;;;29.83;;
22677;SDS011;26259;50.214;18.620;2022-12-11T06:40:13;67.83;;;31.33;;
22677;SDS011;26259;50.214;18.620;2022-12-11T06:42:39;60.13;;;28.17;;
22677;SDS011;26259;50.214;18.620;2022-12-11T06:45:05;67.33;;;33.43;;
22677;SDS011;26259;50.214;18.620;2022-12-11T06:47:31;71.90;;;33.00;;
22677;SDS011;26259;50.214;18.620;2022-12-11T06:49:57;64.07;;;30.30;;
22677;SDS011;26259;50.214;18.620;2022-12-11T06:52:23;80.80;;;35.77;;
22677;SDS011;26259;50.214;18.620;2022-12-11T06:54:51;76.37;;;32.63;;
22677;SDS011;26259;50.214;18.620;2022-12-11T06:57:17;74.67;;;33.30;;
22677;SDS011;26259;50.214;18.620;2022-12-11T06:59:43;69.60;;;32.97;;
22677;SDS011;26259;50.214;18.620;2022-12-11T07:02:12;73.67;;;34.13;;
22677;SDS011;26259;50.214;18.620;2022-12-11T07:04:42;97.27;;;36.93;;
22677;SDS011;26259;50.214;18.620;2022-12-11T07:07:08;79.47;;;36.93;;
22677;SDS011;26259;50.214;18.620;2022-12-11T07:09:35;105.30;;;40.77;;
22677;SDS011;26259;50.214;18.620;2022-12-11T07:12:02;87.27;;;35.90;;
22677;SDS011;26259;50.214;18.620;2022-12-11T07:14:28;87.13;;;37.03;;
22677;SDS011;26259;50.214;18.620;2022-12-11T07:16:54;86.20;;;36.37;;
22677;SDS011;26259;50.214;18.620;2022-12-11T07:19:20;93.33;;;37.50;;
22677;SDS011;26259;50.214;18.620;2022-12-11T07:21:46;91.00;;;37.57;;
22677;SDS011;26259;50.214;18.620;2022-12-11T07:24:11;97.50;;;38.90;;
22677;SDS011;26259;50.214;18.620;2022-12-11T07:26:37;95.13;;;37.93;;
22677;SDS011;26259;50.214;18.620;2022-12-11T07:29:02;86.90;;;34.60;;
22677;SDS011;26259;50.214;18.620;2022-12-11T07:31:28;86.80;;;36.70;;
22677;SDS011;26259;50.214;18.620;2022-12-11T07:34:02;105.20;;;44.70;;
22677;SDS011;26259;50.214;18.620;2022-12-11T07:36:29;107.53;;;41.27;;
22677;SDS011;26259;50.214;18.620;2022-12-11T07:38:55;99.73;;;41.43;;
22677;SDS011;26259;50.214;18.620;2022-12-11T07:41:22;94.23;;;37.90;;
22677;SDS011;26259;50.214;18.620;2022-12-11T07:43:48;78.07;;;32.70;;
22677;SDS011;26259;50.214;18.620;2022-12-11T07:46:17;78.27;;;32.10;;
22677;SDS011;26259;50.214;18.620;2022-12-11T07:48:45;74.83;;;30.90;;
22677;SDS011;26259;50.214;18.620;2022-12-11T07:51:13;78.07;;;35.93;;
22677;SDS011;26259;50.214;18.620;2022-12-11T07:53:41;65.57;;;29.80;;
22677;SDS011;26259;50.214;18.620;2022-12-11T07:56:08;65.77;;;29.77;;
22677;SDS011;26259;50.214;18.620;2022-12-11T07:58:34;71.43;;;31.10;;
22677;SDS011;26259;50.214;18.620;2022-12-11T08:01:00;66.97;;;30.43;;
22677;SDS011;26259;50.214;18.620;2022-12-11T08:03:25;69.23;;;28.87;;
22677;SDS011;26259;50.214;18.620;2022-12-11T08:05:51;53.20;;;24.30;;
22677;SDS011;26259;50.214;18.620;2022-12-11T08:08:17;79.10;;;32.40;;
22677;SDS011;26259;50.214;18.620;2022-12-11T08:10:43;64.23;;;30.80;;
22677;SDS011;26259;50.214;18.620;2022-12-11T08:13:10;71.20;;;30.43;;
22677;SDS011;26259;50.214;18.620;2022-12-11T08:15:35;61.73;;;28.37;;
22677;SDS011;26259;50.214;18.620;2022-12-11T08:18:01;66.47;;;28.63;;
22677;SDS011;26259;50.214;18.620;2022-12-11T08:20:27;49.20;;;25.40;;
22677;SDS011;26259;50.214;18.620;2022-12-11T08:22:52;52.27;;;25.60;;
22677;SDS011;26259;50.214;18.620;2022-12-11T08:25:18;58.33;;;27.60;;
22677;SDS011;26259;50.214;18.620;2022-12-11T08:27:44;56.70;;;27.87;;
22677;SDS011;26259;50.214;18.620;2022-12-11T08:30:09;57.83;;;28.63;;
22677;SDS011;26259;50.214;18.620;2022-12-11T08:32:35;53.37;;;25.93;;
22677;SDS011;26259;50.214;18.620;2022-12-11T08:35:01;54.17;;;24.57;;
22677;SDS011;26259;50.214;18.620;2022-12-11T08:37:26;52.17;;;24.50;;
22677;SDS011;26259;50.214;18.620;2022-12-11T08:39:53;53.10;;;27.33;;
22677;SDS011;26259;50.214;18.620;2022-12-11T08:42:19;51.57;;;24.80;;
22677;SDS011;26259;50.214;18.620;2022-12-11T08:44:45;54.27;;;24.73;;
22677;SDS011;26259;50.214;18.620;2022-12-11T08:47:11;50.47;;;24.23;;
22677;SDS011;26259;50.214;18.620;2022-12-11T08:49:39;44.27;;;22.90;;
22677;SDS011;26259;50.214;18.620;2022-12-11T08:52:04;43.43;;;23.83;;
22677;SDS011;26259;50.214;18.620;2022-12-11T08:54:30;50.87;;;24.80;;
22677;SDS011;26259;50.214;18.620;2022-12-11T08:56:56;49.40;;;23.37;;
22677;SDS011;26259;50.214;18.620;2022-12-11T08:59:22;40.13;;;20.70;;
22677;SDS011;26259;50.214;18.620;2022-12-11T09:01:49;40.97;;;21.27;;
22677;SDS011;26259;50.214;18.620;2022-12-11T09:04:15;44.40;;;22.80;;
22677;SDS011;26259;50.214;18.620;2022-12-11T09:06:40;46.20;;;23.23;;
22677;SDS011;26259;50.214;18.620;2022-12-11T09:09:06;41.63;;;21.37;;
22677;SDS011;26259;50.214;18.620;2022-12-11T09:11:33;45.90;;;24.63;;
22677;SDS011;26259;50.214;18.620;2022-12-11T09:14:00;50.93;;;26.47;;
22677;SDS011;26259;50.214;18.620;2022-12-11T09:16:26;64.87;;;34.20;;
22677;SDS011;26259;50.214;18.620;2022-12-11T09:18:53;41.97;;;24.00;;
22677;SDS011;26259;50.214;18.620;2022-12-11T09:21:20;42.40;;;22.53;;
22677;SDS011;26259;50.214;18.620;2022-12-11T09:23:48;59.20;;;26.23;;
22677;SDS011;26259;50.214;18.620;2022-12-11T09:26:16;51.70;;;26.50;;
22677;SDS011;26259;50.214;18.620;2022-12-11T09:28:43;42.57;;;23.03;;
22677;SDS011;26259;50.214;18.620;2022-12-11T09:31:09;55.30;;;28.60;;
22677;SDS011;26259;50.214;18.620;2022-12-11T09:33:36;47.07;;;25.93;;
22677;SDS011;26259;50.214;18.620;2022-12-11T09:36:02;39.33;;;23.03;;
22677;SDS011;26259;50.214;18.620;2022-12-11T09:38:29;42.67;;;23.47;;
22677;SDS011;26259;50.214;18.620;2022-12-11T09:40:55;40.80;;;22.40;;
22677;SDS011;26259;50.214;18.620;2022-12-11T09:43:35;38.53;;;23.13;;
22677;SDS011;26259;50.214;18.620;2022-12-11T09:46:17;45.33;;;23.60;;
22677;SDS011;26259;50.214;18.620;2022-12-11T09:48:44;40.13;;;23.40;;
22677;SDS011;26259;50.214;18.620;2022-12-11T09:51:17;37.77;;;22.27;;
22677;SDS011;26259;50.214;18.620;2022-12-11T09:53:54;44.00;;;23.00;;
22677;SDS011;26259;50.214;18.620;2022-12-11T09:56:28;38.63;;;22.10;;
22677;SDS011;26259;50.214;18.620;2022-12-11T10:01:39;36.60;;;21.13;;
22677;SDS011;26259;50.214;18.620;2022-12-11T10:07:50;41.90;;;23.50;;
22677;SDS011;26259;50.214;18.620;2022-12-11T10:10:34;33.07;;;20.73;;
22677;SDS011;26259;50.214;18.620;2022-12-11T10:13:20;44.50;;;22.93;;
22677;SDS011;26259;50.214;18.620;2022-12-11T10:18:48;37.40;;;21.10;;
22677;SDS011;26259;50.214;18.620;2022-12-11T10:21:14;35.93;;;20.17;;
22677;SDS011;26259;50.214;18.620;2022-12-11T10:23:43;34.47;;;21.37;;
22677;SDS011;26259;50.214;18.620;2022-12-11T10:26:16;39.00;;;22.90;;
22677;SDS011;26259;50.214;18.620;2022-12-11T10:28:43;37.67;;;21.80;;
22677;SDS011;26259;50.214;18.620;2022-12-11T10:31:19;36.80;;;21.47;;
22677;SDS011;26259;50.214;18.620;2022-12-11T10:34:12;34.43;;;22.37;;
22677;SDS011;26259;50.214;18.620;2022-12-11T10:36:44;38.70;;;22.43;;
22677;SDS011;26259;50.214;18.620;2022-12-11T10:39:15;37.77;;;22.93;;
22677;SDS011;26259;50.214;18.620;2022-12-11T10:41:44;40.13;;;23.03;;
22677;SDS011;26259;50.214;18.620;2022-12-11T10:46:40;40.40;;;22.90;;
22677;SDS011;26259;50.214;18.620;2022-12-11T10:49:17;41.07;;;24.17;;
22677;SDS011;26259;50.214;18.620;2022-12-11T10:51:48;41.10;;;23.53;;
22677;SDS011;26259;50.214;18.620;2022-12-11T10:54:38;42.13;;;24.63;;
22677;SDS011;26259;50.214;18.620;2022-12-11T10:57:07;34.80;;;22.00;;
22677;SDS011;26259;50.214;18.620;2022-12-11T10:59:48;44.00;;;25.83;;
22677;SDS011;26259;50.214;18.620;2022-12-11T11:04:50;40.03;;;21.37;;
22677;SDS011;26259;50.214;18.620;2022-12-11T11:07:19;38.13;;;22.23;;
22677;SDS011;26259;50.214;18.620;2022-12-11T11:09:47;35.50;;;21.90;;
22677;SDS011;26259;50.214;18.620;2022-12-11T11:12:21;37.13;;;21.63;;
22677;SDS011;26259;50.214;18.620;2022-12-11T11:15:01;39.17;;;22.43;;
22677;SDS011;26259;50.214;18.620;2022-12-11T11:17:43;46.37;;;26.43;;
22677;SDS011;26259;50.214;18.620;2022-12-11T11:20:16;36.97;;;22.00;;
22677;SDS011;26259;50.214;18.620;2022-12-11T11:22:44;40.80;;;25.27;;
22677;SDS011;26259;50.214;18.620;2022-12-11T11:25:16;55.43;;;28.80;;
22677;SDS011;26259;50.214;18.620;2022-12-11T11:27:50;44.67;;;25.83;;
22677;SDS011;26259;50.214;18.620;2022-12-11T11:30:20;44.53;;;25.70;;
22677;SDS011;26259;50.214;18.620;2022-12-11T11:32:49;43.47;;;25.57;;
22677;SDS011;26259;50.214;18.620;2022-12-11T11:35:19;45.00;;;25.43;;
22677;SDS011;26259;50.214;18.620;2022-12-11T11:38:32;41.53;;;24.83;;
22677;SDS011;26259;50.214;18.620;2022-12-11T11:46:01;42.07;;;25.60;;
22677;SDS011;26259;50.214;18.620;2022-12-11T11:53:39;39.07;;;22.43;;
22677;SDS011;26259;50.214;18.620;2022-12-11T11:56:21;41.90;;;24.47;;
22677;SDS011;26259;50.214;18.620;2022-12-11T12:01:59;45.40;;;23.97;;
22677;SDS011;26259;50.214;18.620;2022-12-11T12:04:26;44.30;;;26.33;;
22677;SDS011;26259;50.214;18.620;2022-12-11T12:07:03;44.17;;;25.10;;
22677;SDS011;26259;50.214;18.620;2022-12-11T12:12:59;41.50;;;24.17;;
22677;SDS011;26259;50.214;18.620;2022-12-11T12:20:31;43.10;;;23.60;;
22677;SDS011;26259;50.214;18.620;2022-12-11T12:26:00;42.90;;;24.43;;
22677;SDS011;26259;50.214;18.620;2022-12-11T12:28:39;41.90;;;25.27;;
22677;SDS011;26259;50.214;18.620;2022-12-11T12:45:52;45.23;;;25.27;;
22677;SDS011;26259;50.214;18.620;2022-12-11T12:48:40;43.97;;;25.97;;
22677;SDS011;26259;50.214;18.620;2022-12-11T12:51:06;45.27;;;26.80;;
22677;SDS011;26259;50.214;18.620;2022-12-11T12:53:36;45.03;;;24.83;;
22677;SDS011;26259;50.214;18.620;2022-12-11T12:56:02;46.07;;;26.53;;
22677;SDS011;26259;50.214;18.620;2022-12-11T12:58:38;42.17;;;25.27;;
22677;SDS011;26259;50.214;18.620;2022-12-11T13:06:51;46.00;;;26.27;;
22677;SDS011;26259;50.214;18.620;2022-12-11T13:09:21;38.20;;;22.13;;
22677;SDS011;26259;50.214;18.620;2022-12-11T13:11:53;41.70;;;23.83;;
22677;SDS011;26259;50.214;18.620;2022-12-11T13:17:58;42.83;;;23.47;;
22677;SDS011;26259;50.214;18.620;2022-12-11T13:20:10;38.67;;;21.90;;
22677;SDS011;26259;50.214;18.620;2022-12-11T13:25:46;41.43;;;22.97;;
22677;SDS011;26259;50.214;18.620;2022-12-11T13:28:25;32.93;;;21.13;;
22677;SDS011;26259;50.214;18.620;2022-12-11T13:30:56;34.63;;;20.40;;
22677;SDS011;26259;50.214;18.620;2022-12-11T13:33:26;31.90;;;19.83;;
22677;SDS011;26259;50.214;18.620;2022-12-11T13:38:35;35.87;;;20.83;;
22677;SDS011;26259;50.214;18.620;2022-12-11T13:41:03;37.40;;;21.67;;
22677;SDS011;26259;50.214;18.620;2022-12-11T13:43:35;77.47;;;34.60;;
22677;SDS011;26259;50.214;18.620;2022-12-11T13:46:03;47.70;;;23.70;;
22677;SDS011;26259;50.214;18.620;2022-12-11T13:51:21;35.23;;;20.13;;
22677;SDS011;26259;50.214;18.620;2022-12-11T13:53:48;34.80;;;20.27;;
22677;SDS011;26259;50.214;18.620;2022-12-11T13:56:27;37.43;;;20.70;;
22677;SDS011;26259;50.214;18.620;2022-12-11T13:58:52;34.77;;;20.00;;
22677;SDS011;26259;50.214;18.620;2022-12-11T14:01:31;34.07;;;22.30;;
22677;SDS011;26259;50.214;18.620;2022-12-11T14:04:03;32.30;;;19.87;;
22677;SDS011;26259;50.214;18.620;2022-12-11T14:06:33;34.43;;;19.60;;
22677;SDS011;26259;50.214;18.620;2022-12-11T14:09:01;35.50;;;21.10;;
22677;SDS011;26259;50.214;18.620;2022-12-11T14:11:38;35.07;;;20.13;;
22677;SDS011;26259;50.214;18.620;2022-12-11T14:14:07;36.90;;;19.67;;
22677;SDS011;26259;50.214;18.620;2022-12-11T14:16:42;35.63;;;21.20;;
22677;SDS011;26259;50.214;18.620;2022-12-11T14:19:13;38.30;;;21.93;;
22677;SDS011;26259;50.214;18.620;2022-12-11T14:21:41;36.33;;;21.00;;
22677;SDS011;26259;50.214;18.620;2022-12-11T14:24:10;31.77;;;19.80;;
22677;SDS011;26259;50.214;18.620;2022-12-11T14:26:36;33.53;;;18.77;;
22677;SDS011;26259;50.214;18.620;2022-12-11T14:29:03;34.37;;;21.10;;
22677;SDS011;26259;50.214;18.620;2022-12-11T14:31:31;37.97;;;21.53;;
22677;SDS011;26259;50.214;18.620;2022-12-11T14:34:11;35.67;;;21.00;;
22677;SDS011;26259;50.214;18.620;2022-12-11T14:36:41;37.23;;;21.33;;
22677;SDS011;26259;50.214;18.620;2022-12-11T14:41:44;39.93;;;22.97;;
22677;SDS011;26259;50.214;18.620;2022-12-11T14:44:21;38.43;;;22.63;;
22677;SDS011;26259;50.214;18.620;2022-12-11T14:47:32;40.67;;;22.73;;
22677;SDS011;26259;50.214;18.620;2022-12-11T14:49:47;40.77;;;24.17;;
22677;SDS011;26259;50.214;18.620;2022-12-11T14:52:22;42.60;;;23.63;;
22677;SDS011;26259;50.214;18.620;2022-12-11T14:54:54;43.70;;;24.10;;
22677;SDS011;26259;50.214;18.620;2022-12-11T14:57:25;41.13;;;23.80;;
22677;SDS011;26259;50.214;18.620;2022-12-11T14:59:54;42.00;;;22.80;;
22677;SDS011;26259;50.214;18.620;2022-12-11T15:07:43;40.47;;;23.53;;
22677;SDS011;26259;50.214;18.620;2022-12-11T15:10:23;46.93;;;26.10;;
22677;SDS011;26259;50.214;18.620;2022-12-11T15:12:55;46.10;;;25.57;;
22677;SDS011;26259;50.214;18.620;2022-12-11T15:15:21;46.27;;;26.57;;
22677;SDS011;26259;50.214;18.620;2022-12-11T15:17:48;48.60;;;26.13;;
22677;SDS011;26259;50.214;18.620;2022-12-11T15:20:20;47.10;;;27.67;;
22677;SDS011;26259;50.214;18.620;2022-12-11T15:22:48;48.50;;;28.17;;
22677;SDS011;26259;50.214;18.620;2022-12-11T15:25:18;47.57;;;28.53;;
22677;SDS011;26259;50.214;18.620;2022-12-11T15:27:48;50.13;;;27.13;;
22677;SDS011;26259;50.214;18.620;2022-12-11T15:32:43;46.40;;;25.67;;
22677;SDS011;26259;50.214;18.620;2022-12-11T15:35:22;47.73;;;26.33;;
22677;SDS011;26259;50.214;18.620;2022-12-11T15:37:51;44.53;;;25.27;;
22677;SDS011;26259;50.214;18.620;2022-12-11T15:40:22;47.33;;;27.43;;
22677;SDS011;26259;50.214;18.620;2022-12-11T15:42:48;42.60;;;25.27;;
22677;SDS011;26259;50.214;18.620;2022-12-11T15:45:19;44.63;;;25.40;;
22677;SDS011;26259;50.214;18.620;2022-12-11T15:47:50;43.87;;;25.57;;
22677;SDS011;26259;50.214;18.620;2022-12-11T15:50:17;50.57;;;27.83;;
22677;SDS011;26259;50.214;18.620;2022-12-11T15:52:51;49.53;;;29.40;;
22677;SDS011;26259;50.214;18.620;2022-12-11T15:55:18;48.57;;;27.03;;
22677;SDS011;26259;50.214;18.620;2022-12-11T15:57:49;46.60;;;25.77;;
22677;SDS011;26259;50.214;18.620;2022-12-11T16:00:22;48.07;;;27.30;;
22677;SDS011;26259;50.214;18.620;2022-12-11T16:02:48;43.80;;;26.37;;
22677;SDS011;26259;50.214;18.620;2022-12-11T16:05:14;49.40;;;29.70;;